Charles Darwin — GDLS — position and weather

sailwx.info

Track history (hours):
 
Tides and Currents Weather Stations Pressure Air Temp Water Temp Dewpoint Dewpoint Depression Visibility Wind Speed Wind Dir Waves Ship Positions

Oceanographic research ship Charles Darwin (UK)

Detailed information on ship capabilities available from University of Delaware's Ocean Information Center.

Last reported at 2016-Dec-02 11:16 UTC. Time now 2016-Dec-04 12:15 UTC.
Position N 52°33' E 001°51'.

Length 70 m; draft 5.7 m.

Type: Cargo ship. MMSI: 235011460.

Date/timePositionNaut miles runAvg speedWind from/ knotsBaromVisibWave heightAir tempDewpointWater temp
2016-Dec-02 11:16N 52°33' E 001°51'8 0.3
2016-Dec-01 05:18N 52°26' E 001°50'4 0.2
2016-Nov-30 05:19N 52°21' E 001°49'13 4.8
2016-Nov-30 02:33N 52°34' E 001°56'6 6.0
2016-Nov-30 01:33N 52°28' E 001°53'6 6.1
2016-Nov-30 00:33N 52°22' E 001°49'13 3.7
2016-Nov-29 21:04N 52°34' E 001°57'  
2016-Nov-27 06:18N 52°29' E 001°56'10 2.4
2016-Nov-27 02:05N 52°20' E 001°52'29 1.6
2016-Nov-26 08:05N 52°49' E 001°47'610.8
2016-Nov-26 07:33N 52°53' E 001°39'1111.3
2016-Nov-26 06:33N 53°01' E 001°26'37 9.4
2016-Nov-26 02:34N 53°25' E 000°39'1 0.9
2016-Nov-26 01:23N 53°24' E 000°39'0 0.5
2016-Nov-26 00:31N 53°24' E 000°39'0 0.4
2016-Nov-25 23:28N 53°25' E 000°38'21 3.3
2016-Nov-25 17:11N 53°33' E 000°07'711.1
2016-Nov-25 16:33N 53°36' W 000°04'9 8.9
2016-Nov-25 15:34N 53°42' W 000°14'4 3.8
2016-Nov-25 14:31N 53°44' W 000°21'1 0.5
2016-Nov-25 13:28N 53°44' W 000°21'0 0.0
2016-Nov-25 12:31N 53°44' W 000°21'0 0.0
2016-Nov-25 11:28N 53°44' W 000°21'0 0.0
2016-Nov-25 10:31N 53°44' W 000°21'0 0.0
2016-Nov-25 09:31N 53°44' W 000°21'0 0.0
2016-Nov-25 08:31N 53°44' W 000°21'0 0.0
2016-Nov-25 07:31N 53°44' W 000°21'0 0.0
2016-Nov-25 06:31N 53°44' W 000°21'0 0.0
2016-Nov-25 05:31N 53°44' W 000°21'0 0.0
2016-Nov-25 04:31N 53°44' W 000°21'0 0.0
2016-Nov-25 03:28N 53°44' W 000°21'0 0.0
2016-Nov-25 02:22N 53°44' W 000°21'0 0.0
2016-Nov-25 01:31N 53°44' W 000°21'0 0.0
2016-Nov-25 00:31N 53°44' W 000°21'0 0.0
2016-Nov-24 23:31N 53°44' W 000°21'0 0.0
2016-Nov-24 22:31N 53°44' W 000°21'0 0.0
2016-Nov-24 21:31N 53°44' W 000°21'0 0.0
2016-Nov-24 20:31N 53°44' W 000°21'0 0.0
2016-Nov-24 19:31N 53°44' W 000°21'0 0.0
2016-Nov-24 18:31N 53°44' W 000°21'0 0.0
2016-Nov-24 17:34N 53°44' W 000°21'0 0.0
2016-Nov-24 16:31N 53°44' W 000°21'0 0.0
2016-Nov-24 15:31N 53°44' W 000°21'0 0.0
2016-Nov-24 14:31N 53°44' W 000°21'0 0.0
2016-Nov-24 13:25N 53°44' W 000°21'0 0.0
2016-Nov-24 12:33N 53°44' W 000°21'0 0.0
2016-Nov-24 11:33N 53°44' W 000°21'0 0.0
2016-Nov-24 10:34N 53°44' W 000°21'0 0.0
2016-Nov-24 09:30N 53°44' W 000°21'0 0.0
2016-Nov-24 08:33N 53°44' W 000°21'0 0.0
2016-Nov-24 07:33N 53°44' W 000°21'0 0.0
2016-Nov-24 06:31N 53°44' W 000°21'0 0.0
2016-Nov-24 05:28N 53°44' W 000°21'0 0.0
2016-Nov-24 04:34N 53°44' W 000°21'0 0.0
2016-Nov-24 03:34N 53°44' W 000°21'0 0.0
2016-Nov-24 02:34N 53°44' W 000°21'0 0.0
2016-Nov-24 01:33N 53°44' W 000°21'0 0.0
2016-Nov-24 00:33N 53°44' W 000°21'0 0.0
2016-Nov-23 23:34N 53°44' W 000°21'0 0.0
2016-Nov-23 22:33N 53°44' W 000°21'0 0.0
2016-Nov-23 21:34N 53°44' W 000°21'0 0.0
2016-Nov-23 20:30N 53°44' W 000°21'0 0.0
2016-Nov-23 19:30N 53°44' W 000°21'0 0.0
2016-Nov-23 18:33N 53°44' W 000°21'0 0.0
2016-Nov-23 17:33N 53°44' W 000°21'0 0.0
2016-Nov-23 16:33N 53°44' W 000°21'0 0.0
2016-Nov-23 15:34N 53°44' W 000°21'0 0.0
2016-Nov-23 14:33N 53°44' W 000°21'0 0.0
2016-Nov-23 13:33N 53°44' W 000°21'0 0.0
2016-Nov-23 12:33N 53°44' W 000°21'0 0.0
2016-Nov-23 11:28N 53°44' W 000°21'0 0.0
2016-Nov-23 10:33N 53°44' W 000°21'0 0.0
2016-Nov-23 09:33N 53°44' W 000°21'0 0.0
2016-Nov-23 08:31N 53°44' W 000°21'0 0.0
2016-Nov-23 07:33N 53°44' W 000°21'0 0.0
2016-Nov-23 06:34N 53°44' W 000°21'0 0.0
2016-Nov-23 03:33N 53°44' W 000°21'0 0.0
2016-Nov-23 02:33N 53°44' W 000°21'1 0.3
2016-Nov-23 00:33N 53°44' W 000°20'2 2.3
2016-Nov-22 23:34N 53°44' W 000°17'8 8.2
2016-Nov-22 22:33N 53°38' W 000°08'14 7.0
2016-Nov-22 20:34N 53°33' E 000°14'8 7.6
2016-Nov-22 19:33N 53°39' E 000°22'  
Track history (hours):
 
Tides and Currents Weather Stations Pressure Air Temp Water Temp Dewpoint Dewpoint Depression Visibility Wind Speed Wind Dir Waves Ship Positions

Oceanographic research ship Charles Darwin (UK)

Detailed information on ship capabilities available from University of Delaware's Ocean Information Center.

Last reported at 2016-Dec-02 11:16 UTC. Time now 2016-Dec-04 12:15 UTC.
Position N 52°33' E 001°51'.

Length 70 m; draft 5.7 m.

Type: Cargo ship. MMSI: 235011460.

Date/timePositionNaut miles runAvg speedWind from/ knotsBaromVisibWave heightAir tempDewpointWater temp
2016-Dec-02 11:16N 52°33' E 001°51'8 0.3
2016-Dec-01 05:18N 52°26' E 001°50'4 0.2
2016-Nov-30 05:19N 52°21' E 001°49'13 4.8
2016-Nov-30 02:33N 52°34' E 001°56'6 6.0
2016-Nov-30 01:33N 52°28' E 001°53'6 6.1
2016-Nov-30 00:33N 52°22' E 001°49'13 3.7
2016-Nov-29 21:04N 52°34' E 001°57'  
2016-Nov-27 06:18N 52°29' E 001°56'10 2.4
2016-Nov-27 02:05N 52°20' E 001°52'29 1.6
2016-Nov-26 08:05N 52°49' E 001°47'610.8
2016-Nov-26 07:33N 52°53' E 001°39'1111.3
2016-Nov-26 06:33N 53°01' E 001°26'37 9.4
2016-Nov-26 02:34N 53°25' E 000°39'1 0.9
2016-Nov-26 01:23N 53°24' E 000°39'0 0.5
2016-Nov-26 00:31N 53°24' E 000°39'0 0.4
2016-Nov-25 23:28N 53°25' E 000°38'21 3.3
2016-Nov-25 17:11N 53°33' E 000°07'711.1
2016-Nov-25 16:33N 53°36' W 000°04'9 8.9
2016-Nov-25 15:34N 53°42' W 000°14'4 3.8
2016-Nov-25 14:31N 53°44' W 000°21'1 0.5
2016-Nov-25 13:28N 53°44' W 000°21'0 0.0
2016-Nov-25 12:31N 53°44' W 000°21'0 0.0
2016-Nov-25 11:28N 53°44' W 000°21'0 0.0
2016-Nov-25 10:31N 53°44' W 000°21'0 0.0
2016-Nov-25 09:31N 53°44' W 000°21'0 0.0
2016-Nov-25 08:31N 53°44' W 000°21'0 0.0
2016-Nov-25 07:31N 53°44' W 000°21'0 0.0
2016-Nov-25 06:31N 53°44' W 000°21'0 0.0
2016-Nov-25 05:31N 53°44' W 000°21'0 0.0
2016-Nov-25 04:31N 53°44' W 000°21'0 0.0
2016-Nov-25 03:28N 53°44' W 000°21'0 0.0
2016-Nov-25 02:22N 53°44' W 000°21'0 0.0
2016-Nov-25 01:31N 53°44' W 000°21'0 0.0
2016-Nov-25 00:31N 53°44' W 000°21'0 0.0
2016-Nov-24 23:31N 53°44' W 000°21'0 0.0
2016-Nov-24 22:31N 53°44' W 000°21'0 0.0
2016-Nov-24 21:31N 53°44' W 000°21'0 0.0
2016-Nov-24 20:31N 53°44' W 000°21'0 0.0
2016-Nov-24 19:31N 53°44' W 000°21'0 0.0
2016-Nov-24 18:31N 53°44' W 000°21'0 0.0
2016-Nov-24 17:34N 53°44' W 000°21'0 0.0
2016-Nov-24 16:31N 53°44' W 000°21'0 0.0
2016-Nov-24 15:31N 53°44' W 000°21'0 0.0
2016-Nov-24 14:31N 53°44' W 000°21'0 0.0
2016-Nov-24 13:25N 53°44' W 000°21'0 0.0
2016-Nov-24 12:33N 53°44' W 000°21'0 0.0
2016-Nov-24 11:33N 53°44' W 000°21'0 0.0
2016-Nov-24 10:34N 53°44' W 000°21'0 0.0
2016-Nov-24 09:30N 53°44' W 000°21'0 0.0
2016-Nov-24 08:33N 53°44' W 000°21'0 0.0
2016-Nov-24 07:33N 53°44' W 000°21'0 0.0
2016-Nov-24 06:31N 53°44' W 000°21'0 0.0
2016-Nov-24 05:28N 53°44' W 000°21'0 0.0
2016-Nov-24 04:34N 53°44' W 000°21'0 0.0
2016-Nov-24 03:34N 53°44' W 000°21'0 0.0
2016-Nov-24 02:34N 53°44' W 000°21'0 0.0
2016-Nov-24 01:33N 53°44' W 000°21'0 0.0
2016-Nov-24 00:33N 53°44' W 000°21'0 0.0
2016-Nov-23 23:34N 53°44' W 000°21'0 0.0
2016-Nov-23 22:33N 53°44' W 000°21'0 0.0
2016-Nov-23 21:34N 53°44' W 000°21'0 0.0
2016-Nov-23 20:30N 53°44' W 000°21'0 0.0
2016-Nov-23 19:30N 53°44' W 000°21'0 0.0
2016-Nov-23 18:33N 53°44' W 000°21'0 0.0
2016-Nov-23 17:33N 53°44' W 000°21'0 0.0
2016-Nov-23 16:33N 53°44' W 000°21'0 0.0
2016-Nov-23 15:34N 53°44' W 000°21'0 0.0
2016-Nov-23 14:33N 53°44' W 000°21'0 0.0
2016-Nov-23 13:33N 53°44' W 000°21'0 0.0
2016-Nov-23 12:33N 53°44' W 000°21'0 0.0
2016-Nov-23 11:28N 53°44' W 000°21'0 0.0
2016-Nov-23 10:33N 53°44' W 000°21'0 0.0
2016-Nov-23 09:33N 53°44' W 000°21'0 0.0
2016-Nov-23 08:31N 53°44' W 000°21'0 0.0
2016-Nov-23 07:33N 53°44' W 000°21'0 0.0
2016-Nov-23 06:34N 53°44' W 000°21'0 0.0
2016-Nov-23 03:33N 53°44' W 000°21'0 0.0
2016-Nov-23 02:33N 53°44' W 000°21'1 0.3
2016-Nov-23 00:33N 53°44' W 000°20'2 2.3
2016-Nov-22 23:34N 53°44' W 000°17'8 8.2
2016-Nov-22 22:33N 53°38' W 000°08'14 7.0
2016-Nov-22 20:34N 53°33' E 000°14'8 7.6
2016-Nov-22 19:33N 53°39' E 000°22'  

Dump ship's entire track history